sensor_id;sensor_type;location;lat;lon;timestamp;P1;durP1;ratioP1;P2;durP2;ratioP2
57341;SDS011;43175;51.002;18.316;2023-06-19T00:01:41;17.10;;;9.60;;
57341;SDS011;43175;51.002;18.316;2023-06-19T00:04:07;16.80;;;9.20;;
57341;SDS011;43175;51.002;18.316;2023-06-19T00:06:32;17.50;;;10.00;;
57341;SDS011;43175;51.002;18.316;2023-06-19T00:08:58;16.00;;;8.80;;
57341;SDS011;43175;51.002;18.316;2023-06-19T00:11:23;17.30;;;9.60;;
57341;SDS011;43175;51.002;18.316;2023-06-19T00:13:49;18.70;;;9.60;;
57341;SDS011;43175;51.002;18.316;2023-06-19T00:16:15;16.00;;;9.80;;
57341;SDS011;43175;51.002;18.316;2023-06-19T00:18:40;17.80;;;10.20;;
57341;SDS011;43175;51.002;18.316;2023-06-19T00:21:07;17.30;;;9.40;;
57341;SDS011;43175;51.002;18.316;2023-06-19T00:23:33;16.60;;;9.70;;
57341;SDS011;43175;51.002;18.316;2023-06-19T00:25:59;18.10;;;10.00;;
57341;SDS011;43175;51.002;18.316;2023-06-19T00:28:30;15.30;;;9.60;;
57341;SDS011;43175;51.002;18.316;2023-06-19T00:30:56;16.60;;;10.00;;
57341;SDS011;43175;51.002;18.316;2023-06-19T00:33:22;20.00;;;10.90;;
57341;SDS011;43175;51.002;18.316;2023-06-19T00:35:50;18.60;;;11.70;;
57341;SDS011;43175;51.002;18.316;2023-06-19T00:38:16;23.10;;;12.30;;
57341;SDS011;43175;51.002;18.316;2023-06-19T00:40:41;21.00;;;12.70;;
57341;SDS011;43175;51.002;18.316;2023-06-19T00:43:07;22.90;;;13.10;;
57341;SDS011;43175;51.002;18.316;2023-06-19T00:45:32;20.30;;;12.20;;
57341;SDS011;43175;51.002;18.316;2023-06-19T00:47:58;20.90;;;12.90;;
57341;SDS011;43175;51.002;18.316;2023-06-19T00:50:25;20.20;;;12.20;;
57341;SDS011;43175;51.002;18.316;2023-06-19T00:52:51;21.90;;;13.40;;
57341;SDS011;43175;51.002;18.316;2023-06-19T00:55:17;22.30;;;13.10;;
57341;SDS011;43175;51.002;18.316;2023-06-19T00:57:43;21.50;;;12.80;;
57341;SDS011;43175;51.002;18.316;2023-06-19T01:00:10;21.90;;;13.30;;
57341;SDS011;43175;51.002;18.316;2023-06-19T01:02:38;21.00;;;13.30;;
57341;SDS011;43175;51.002;18.316;2023-06-19T01:05:04;20.80;;;13.20;;
57341;SDS011;43175;51.002;18.316;2023-06-19T01:07:41;23.80;;;13.40;;
57341;SDS011;43175;51.002;18.316;2023-06-19T01:10:12;23.40;;;14.20;;
57341;SDS011;43175;51.002;18.316;2023-06-19T01:12:42;24.20;;;13.90;;
57341;SDS011;43175;51.002;18.316;2023-06-19T01:15:16;22.40;;;13.90;;
57341;SDS011;43175;51.002;18.316;2023-06-19T01:17:41;21.60;;;13.30;;
57341;SDS011;43175;51.002;18.316;2023-06-19T01:20:08;24.00;;;13.80;;
57341;SDS011;43175;51.002;18.316;2023-06-19T01:22:36;22.70;;;13.20;;
57341;SDS011;43175;51.002;18.316;2023-06-19T01:25:02;25.60;;;13.30;;
57341;SDS011;43175;51.002;18.316;2023-06-19T01:27:31;22.20;;;12.70;;
57341;SDS011;43175;51.002;18.316;2023-06-19T01:29:57;23.90;;;12.60;;
57341;SDS011;43175;51.002;18.316;2023-06-19T01:32:25;24.10;;;12.40;;
57341;SDS011;43175;51.002;18.316;2023-06-19T01:34:56;22.80;;;12.10;;
57341;SDS011;43175;51.002;18.316;2023-06-19T01:37:23;21.40;;;11.50;;
57341;SDS011;43175;51.002;18.316;2023-06-19T01:39:52;22.70;;;12.30;;
57341;SDS011;43175;51.002;18.316;2023-06-19T01:42:20;21.70;;;11.90;;
57341;SDS011;43175;51.002;18.316;2023-06-19T01:44:45;21.00;;;11.80;;
57341;SDS011;43175;51.002;18.316;2023-06-19T01:47:11;23.30;;;12.20;;
57341;SDS011;43175;51.002;18.316;2023-06-19T01:49:37;24.30;;;12.60;;
57341;SDS011;43175;51.002;18.316;2023-06-19T01:52:03;21.50;;;12.40;;
57341;SDS011;43175;51.002;18.316;2023-06-19T01:54:29;25.50;;;11.60;;
57341;SDS011;43175;51.002;18.316;2023-06-19T01:56:55;24.30;;;11.00;;
57341;SDS011;43175;51.002;18.316;2023-06-19T01:59:22;20.80;;;11.10;;
57341;SDS011;43175;51.002;18.316;2023-06-19T02:01:47;23.00;;;10.80;;
57341;SDS011;43175;51.002;18.316;2023-06-19T02:04:13;23.60;;;11.50;;
57341;SDS011;43175;51.002;18.316;2023-06-19T02:06:38;24.30;;;11.40;;
57341;SDS011;43175;51.002;18.316;2023-06-19T02:09:04;21.80;;;12.20;;
57341;SDS011;43175;51.002;18.316;2023-06-19T02:11:29;22.30;;;12.40;;
57341;SDS011;43175;51.002;18.316;2023-06-19T02:13:54;26.40;;;11.80;;
57341;SDS011;43175;51.002;18.316;2023-06-19T02:16:20;23.10;;;11.90;;
57341;SDS011;43175;51.002;18.316;2023-06-19T02:18:45;25.20;;;12.60;;
57341;SDS011;43175;51.002;18.316;2023-06-19T02:21:11;21.50;;;11.70;;
57341;SDS011;43175;51.002;18.316;2023-06-19T02:23:36;21.50;;;12.60;;
57341;SDS011;43175;51.002;18.316;2023-06-19T02:26:02;23.20;;;12.70;;
57341;SDS011;43175;51.002;18.316;2023-06-19T02:28:28;22.10;;;13.00;;
57341;SDS011;43175;51.002;18.316;2023-06-19T02:30:53;22.40;;;13.30;;
57341;SDS011;43175;51.002;18.316;2023-06-19T02:33:19;24.80;;;13.90;;
57341;SDS011;43175;51.002;18.316;2023-06-19T02:35:45;22.90;;;14.60;;
57341;SDS011;43175;51.002;18.316;2023-06-19T02:38:10;21.60;;;13.00;;
57341;SDS011;43175;51.002;18.316;2023-06-19T02:40:38;23.10;;;13.30;;
57341;SDS011;43175;51.002;18.316;2023-06-19T02:43:04;21.50;;;12.80;;
57341;SDS011;43175;51.002;18.316;2023-06-19T02:45:30;20.60;;;12.70;;
57341;SDS011;43175;51.002;18.316;2023-06-19T02:47:55;21.40;;;12.80;;
57341;SDS011;43175;51.002;18.316;2023-06-19T02:50:20;21.70;;;13.30;;
57341;SDS011;43175;51.002;18.316;2023-06-19T02:52:46;24.00;;;13.10;;
57341;SDS011;43175;51.002;18.316;2023-06-19T02:55:12;21.90;;;13.20;;
57341;SDS011;43175;51.002;18.316;2023-06-19T02:57:37;22.80;;;13.60;;
57341;SDS011;43175;51.002;18.316;2023-06-19T03:00:03;25.20;;;14.40;;
57341;SDS011;43175;51.002;18.316;2023-06-19T03:02:31;23.40;;;13.20;;
57341;SDS011;43175;51.002;18.316;2023-06-19T03:04:56;23.40;;;13.30;;
57341;SDS011;43175;51.002;18.316;2023-06-19T03:07:22;25.40;;;14.40;;
57341;SDS011;43175;51.002;18.316;2023-06-19T03:09:47;24.60;;;14.20;;
57341;SDS011;43175;51.002;18.316;2023-06-19T03:12:13;27.60;;;14.60;;
57341;SDS011;43175;51.002;18.316;2023-06-19T03:14:38;26.80;;;14.80;;
57341;SDS011;43175;51.002;18.316;2023-06-19T03:17:05;24.70;;;14.90;;
57341;SDS011;43175;51.002;18.316;2023-06-19T03:19:30;29.50;;;14.50;;
57341;SDS011;43175;51.002;18.316;2023-06-19T03:21:56;20.80;;;14.30;;
57341;SDS011;43175;51.002;18.316;2023-06-19T03:24:22;25.50;;;14.70;;
57341;SDS011;43175;51.002;18.316;2023-06-19T03:26:48;24.80;;;15.00;;
57341;SDS011;43175;51.002;18.316;2023-06-19T03:29:13;23.80;;;13.90;;
57341;SDS011;43175;51.002;18.316;2023-06-19T03:31:39;23.40;;;13.80;;
57341;SDS011;43175;51.002;18.316;2023-06-19T03:34:05;22.30;;;14.20;;
57341;SDS011;43175;51.002;18.316;2023-06-19T03:36:30;21.70;;;14.30;;
57341;SDS011;43175;51.002;18.316;2023-06-19T03:38:56;28.30;;;15.90;;
57341;SDS011;43175;51.002;18.316;2023-06-19T03:41:21;23.20;;;15.40;;
57341;SDS011;43175;51.002;18.316;2023-06-19T03:43:46;23.30;;;14.60;;
57341;SDS011;43175;51.002;18.316;2023-06-19T03:46:12;26.00;;;15.40;;
57341;SDS011;43175;51.002;18.316;2023-06-19T03:48:38;25.00;;;16.30;;
57341;SDS011;43175;51.002;18.316;2023-06-19T03:51:03;23.90;;;16.30;;
57341;SDS011;43175;51.002;18.316;2023-06-19T03:53:28;23.70;;;14.70;;
57341;SDS011;43175;51.002;18.316;2023-06-19T03:55:54;27.60;;;14.80;;
57341;SDS011;43175;51.002;18.316;2023-06-19T03:58:20;22.90;;;14.90;;
57341;SDS011;43175;51.002;18.316;2023-06-19T04:00:45;24.80;;;14.60;;
57341;SDS011;43175;51.002;18.316;2023-06-19T04:03:11;24.10;;;14.60;;
57341;SDS011;43175;51.002;18.316;2023-06-19T04:05:36;23.40;;;14.50;;
57341;SDS011;43175;51.002;18.316;2023-06-19T04:08:02;21.60;;;13.90;;
57341;SDS011;43175;51.002;18.316;2023-06-19T04:10:28;23.70;;;13.80;;
57341;SDS011;43175;51.002;18.316;2023-06-19T04:12:54;22.40;;;14.40;;
57341;SDS011;43175;51.002;18.316;2023-06-19T04:15:21;26.30;;;15.70;;
57341;SDS011;43175;51.002;18.316;2023-06-19T04:17:47;25.00;;;15.90;;
57341;SDS011;43175;51.002;18.316;2023-06-19T04:20:12;24.10;;;16.90;;
57341;SDS011;43175;51.002;18.316;2023-06-19T04:22:38;24.80;;;15.90;;
57341;SDS011;43175;51.002;18.316;2023-06-19T04:25:05;29.90;;;18.40;;
57341;SDS011;43175;51.002;18.316;2023-06-19T04:27:35;25.40;;;16.80;;
57341;SDS011;43175;51.002;18.316;2023-06-19T04:30:04;24.30;;;16.10;;
57341;SDS011;43175;51.002;18.316;2023-06-19T04:32:31;28.20;;;18.70;;
57341;SDS011;43175;51.002;18.316;2023-06-19T04:34:58;43.40;;;23.90;;
57341;SDS011;43175;51.002;18.316;2023-06-19T04:37:25;36.80;;;23.10;;
57341;SDS011;43175;51.002;18.316;2023-06-19T04:39:50;28.40;;;18.40;;
57341;SDS011;43175;51.002;18.316;2023-06-19T04:42:16;23.90;;;15.10;;
57341;SDS011;43175;51.002;18.316;2023-06-19T04:44:48;22.70;;;15.70;;
57341;SDS011;43175;51.002;18.316;2023-06-19T04:47:16;21.10;;;14.80;;
57341;SDS011;43175;51.002;18.316;2023-06-19T04:49:42;24.00;;;15.20;;
57341;SDS011;43175;51.002;18.316;2023-06-19T04:52:08;23.30;;;15.40;;
57341;SDS011;43175;51.002;18.316;2023-06-19T04:54:33;22.80;;;15.90;;
57341;SDS011;43175;51.002;18.316;2023-06-19T04:56:59;22.20;;;14.60;;
57341;SDS011;43175;51.002;18.316;2023-06-19T04:59:24;21.60;;;14.60;;
57341;SDS011;43175;51.002;18.316;2023-06-19T05:01:50;21.00;;;14.60;;
57341;SDS011;43175;51.002;18.316;2023-06-19T05:04:19;20.60;;;14.10;;
57341;SDS011;43175;51.002;18.316;2023-06-19T05:06:50;22.90;;;14.80;;
57341;SDS011;43175;51.002;18.316;2023-06-19T05:09:16;23.10;;;15.00;;
57341;SDS011;43175;51.002;18.316;2023-06-19T05:11:42;21.60;;;14.60;;
57341;SDS011;43175;51.002;18.316;2023-06-19T05:14:07;21.70;;;14.20;;
57341;SDS011;43175;51.002;18.316;2023-06-19T05:16:33;25.00;;;15.50;;
57341;SDS011;43175;51.002;18.316;2023-06-19T05:18:59;19.70;;;14.20;;
57341;SDS011;43175;51.002;18.316;2023-06-19T05:21:24;21.80;;;14.70;;
57341;SDS011;43175;51.002;18.316;2023-06-19T05:23:49;23.90;;;15.50;;
57341;SDS011;43175;51.002;18.316;2023-06-19T05:26:16;24.70;;;15.90;;
57341;SDS011;43175;51.002;18.316;2023-06-19T05:28:42;21.40;;;14.60;;
57341;SDS011;43175;51.002;18.316;2023-06-19T05:31:07;22.00;;;13.80;;
57341;SDS011;43175;51.002;18.316;2023-06-19T05:33:33;20.50;;;14.40;;
57341;SDS011;43175;51.002;18.316;2023-06-19T05:35:58;21.50;;;14.20;;
57341;SDS011;43175;51.002;18.316;2023-06-19T05:38:24;18.90;;;13.70;;
57341;SDS011;43175;51.002;18.316;2023-06-19T05:40:51;19.80;;;13.30;;
57341;SDS011;43175;51.002;18.316;2023-06-19T05:43:17;21.20;;;13.30;;
57341;SDS011;43175;51.002;18.316;2023-06-19T05:45:44;19.80;;;13.00;;
57341;SDS011;43175;51.002;18.316;2023-06-19T05:48:09;18.80;;;13.10;;
57341;SDS011;43175;51.002;18.316;2023-06-19T05:50:35;20.70;;;13.30;;
57341;SDS011;43175;51.002;18.316;2023-06-19T05:53:00;18.90;;;12.80;;
57341;SDS011;43175;51.002;18.316;2023-06-19T05:55:26;18.30;;;12.20;;
57341;SDS011;43175;51.002;18.316;2023-06-19T05:57:53;18.80;;;11.90;;
57341;SDS011;43175;51.002;18.316;2023-06-19T06:00:19;18.60;;;12.20;;
57341;SDS011;43175;51.002;18.316;2023-06-19T06:02:45;21.90;;;12.40;;
57341;SDS011;43175;51.002;18.316;2023-06-19T06:05:11;17.70;;;11.80;;
57341;SDS011;43175;51.002;18.316;2023-06-19T06:07:37;18.90;;;12.00;;
57341;SDS011;43175;51.002;18.316;2023-06-19T06:10:02;18.40;;;11.80;;
57341;SDS011;43175;51.002;18.316;2023-06-19T06:12:28;17.60;;;11.50;;
57341;SDS011;43175;51.002;18.316;2023-06-19T06:14:53;18.70;;;12.00;;
57341;SDS011;43175;51.002;18.316;2023-06-19T06:17:18;17.20;;;11.00;;
57341;SDS011;43175;51.002;18.316;2023-06-19T06:19:44;17.10;;;11.20;;
57341;SDS011;43175;51.002;18.316;2023-06-19T06:22:09;15.30;;;10.20;;
57341;SDS011;43175;51.002;18.316;2023-06-19T06:24:35;16.70;;;10.80;;
57341;SDS011;43175;51.002;18.316;2023-06-19T06:27:00;16.90;;;10.80;;
57341;SDS011;43175;51.002;18.316;2023-06-19T06:29:25;15.50;;;10.00;;
57341;SDS011;43175;51.002;18.316;2023-06-19T06:31:51;18.10;;;11.20;;
57341;SDS011;43175;51.002;18.316;2023-06-19T06:34:20;15.70;;;10.40;;
57341;SDS011;43175;51.002;18.316;2023-06-19T06:36:45;16.50;;;10.40;;
57341;SDS011;43175;51.002;18.316;2023-06-19T06:39:11;15.50;;;10.20;;
57341;SDS011;43175;51.002;18.316;2023-06-19T06:41:36;15.20;;;9.90;;
57341;SDS011;43175;51.002;18.316;2023-06-19T06:44:02;13.90;;;9.00;;
57341;SDS011;43175;51.002;18.316;2023-06-19T06:46:30;16.80;;;9.70;;
57341;SDS011;43175;51.002;18.316;2023-06-19T06:48:55;15.30;;;9.30;;
57341;SDS011;43175;51.002;18.316;2023-06-19T06:51:20;14.90;;;9.40;;
57341;SDS011;43175;51.002;18.316;2023-06-19T06:53:47;13.80;;;8.50;;
57341;SDS011;43175;51.002;18.316;2023-06-19T06:56:13;16.70;;;8.40;;
57341;SDS011;43175;51.002;18.316;2023-06-19T06:58:39;13.90;;;8.70;;
57341;SDS011;43175;51.002;18.316;2023-06-19T07:01:04;15.90;;;8.50;;
57341;SDS011;43175;51.002;18.316;2023-06-19T07:03:30;14.80;;;8.60;;
57341;SDS011;43175;51.002;18.316;2023-06-19T07:05:57;14.50;;;8.60;;
57341;SDS011;43175;51.002;18.316;2023-06-19T07:08:22;14.70;;;8.90;;
57341;SDS011;43175;51.002;18.316;2023-06-19T07:10:48;15.30;;;8.30;;
57341;SDS011;43175;51.002;18.316;2023-06-19T07:13:14;14.50;;;8.60;;
57341;SDS011;43175;51.002;18.316;2023-06-19T07:15:39;15.50;;;8.30;;
57341;SDS011;43175;51.002;18.316;2023-06-19T07:18:05;13.60;;;8.40;;
57341;SDS011;43175;51.002;18.316;2023-06-19T07:20:30;13.50;;;8.40;;
57341;SDS011;43175;51.002;18.316;2023-06-19T07:22:56;12.90;;;8.20;;
57341;SDS011;43175;51.002;18.316;2023-06-19T07:25:22;13.20;;;7.80;;
57341;SDS011;43175;51.002;18.316;2023-06-19T07:27:50;13.80;;;7.30;;
57341;SDS011;43175;51.002;18.316;2023-06-19T07:30:15;12.60;;;7.50;;
57341;SDS011;43175;51.002;18.316;2023-06-19T07:32:40;12.30;;;7.10;;
57341;SDS011;43175;51.002;18.316;2023-06-19T07:35:07;12.20;;;7.20;;
57341;SDS011;43175;51.002;18.316;2023-06-19T07:37:33;13.70;;;7.30;;
57341;SDS011;43175;51.002;18.316;2023-06-19T07:39:58;11.70;;;6.90;;
57341;SDS011;43175;51.002;18.316;2023-06-19T07:42:25;11.90;;;7.00;;
57341;SDS011;43175;51.002;18.316;2023-06-19T07:44:51;11.70;;;6.80;;
57341;SDS011;43175;51.002;18.316;2023-06-19T07:47:18;11.90;;;7.20;;
57341;SDS011;43175;51.002;18.316;2023-06-19T07:49:44;12.20;;;7.10;;
57341;SDS011;43175;51.002;18.316;2023-06-19T07:52:10;11.50;;;7.00;;
57341;SDS011;43175;51.002;18.316;2023-06-19T07:54:35;11.80;;;7.20;;
57341;SDS011;43175;51.002;18.316;2023-06-19T07:57:01;12.50;;;7.10;;
57341;SDS011;43175;51.002;18.316;2023-06-19T07:59:27;12.20;;;6.50;;
57341;SDS011;43175;51.002;18.316;2023-06-19T08:01:52;10.80;;;6.30;;
57341;SDS011;43175;51.002;18.316;2023-06-19T08:04:18;11.80;;;6.70;;
57341;SDS011;43175;51.002;18.316;2023-06-19T08:06:43;12.20;;;7.20;;
57341;SDS011;43175;51.002;18.316;2023-06-19T08:09:08;11.50;;;7.00;;
57341;SDS011;43175;51.002;18.316;2023-06-19T08:11:34;12.30;;;6.40;;
57341;SDS011;43175;51.002;18.316;2023-06-19T08:14:00;10.70;;;6.30;;
57341;SDS011;43175;51.002;18.316;2023-06-19T08:16:26;10.60;;;5.90;;
57341;SDS011;43175;51.002;18.316;2023-06-19T08:18:51;12.20;;;5.80;;
57341;SDS011;43175;51.002;18.316;2023-06-19T08:21:17;10.70;;;6.10;;
57341;SDS011;43175;51.002;18.316;2023-06-19T08:23:43;11.90;;;6.30;;
57341;SDS011;43175;51.002;18.316;2023-06-19T08:26:09;12.10;;;6.70;;
57341;SDS011;43175;51.002;18.316;2023-06-19T08:28:35;11.40;;;6.40;;
57341;SDS011;43175;51.002;18.316;2023-06-19T08:31:03;10.90;;;6.60;;
57341;SDS011;43175;51.002;18.316;2023-06-19T08:33:28;15.90;;;6.40;;
57341;SDS011;43175;51.002;18.316;2023-06-19T08:35:53;11.10;;;6.30;;
57341;SDS011;43175;51.002;18.316;2023-06-19T08:38:19;14.00;;;6.60;;
57341;SDS011;43175;51.002;18.316;2023-06-19T08:40:44;11.30;;;6.70;;
57341;SDS011;43175;51.002;18.316;2023-06-19T08:43:10;12.30;;;6.40;;
57341;SDS011;43175;51.002;18.316;2023-06-19T08:45:36;12.80;;;6.30;;
57341;SDS011;43175;51.002;18.316;2023-06-19T08:48:02;10.70;;;6.30;;
57341;SDS011;43175;51.002;18.316;2023-06-19T08:50:32;10.60;;;6.00;;
57341;SDS011;43175;51.002;18.316;2023-06-19T08:52:58;13.70;;;6.60;;
57341;SDS011;43175;51.002;18.316;2023-06-19T08:55:23;11.40;;;6.70;;
57341;SDS011;43175;51.002;18.316;2023-06-19T08:57:49;12.00;;;6.30;;
57341;SDS011;43175;51.002;18.316;2023-06-19T09:00:28;11.40;;;6.50;;
57341;SDS011;43175;51.002;18.316;2023-06-19T09:02:59;12.40;;;6.80;;
57341;SDS011;43175;51.002;18.316;2023-06-19T09:05:26;11.20;;;6.40;;
57341;SDS011;43175;51.002;18.316;2023-06-19T09:07:56;11.50;;;6.40;;
57341;SDS011;43175;51.002;18.316;2023-06-19T09:10:23;11.30;;;6.20;;
57341;SDS011;43175;51.002;18.316;2023-06-19T09:12:56;11.20;;;6.30;;
57341;SDS011;43175;51.002;18.316;2023-06-19T09:15:23;11.50;;;5.70;;
57341;SDS011;43175;51.002;18.316;2023-06-19T09:17:59;11.00;;;6.50;;
57341;SDS011;43175;51.002;18.316;2023-06-19T09:20:36;11.00;;;6.30;;
57341;SDS011;43175;51.002;18.316;2023-06-19T09:23:04;13.20;;;6.30;;
57341;SDS011;43175;51.002;18.316;2023-06-19T09:25:30;11.70;;;6.20;;
57341;SDS011;43175;51.002;18.316;2023-06-19T09:27:56;11.20;;;6.00;;
57341;SDS011;43175;51.002;18.316;2023-06-19T09:30:22;11.10;;;5.70;;
57341;SDS011;43175;51.002;18.316;2023-06-19T09:32:48;10.70;;;5.90;;
57341;SDS011;43175;51.002;18.316;2023-06-19T09:35:13;13.80;;;6.40;;
57341;SDS011;43175;51.002;18.316;2023-06-19T09:37:39;10.60;;;5.80;;
57341;SDS011;43175;51.002;18.316;2023-06-19T09:40:08;11.30;;;6.20;;
57341;SDS011;43175;51.002;18.316;2023-06-19T09:42:39;12.70;;;6.30;;
57341;SDS011;43175;51.002;18.316;2023-06-19T09:45:07;11.00;;;6.00;;
57341;SDS011;43175;51.002;18.316;2023-06-19T09:47:38;11.30;;;5.80;;
57341;SDS011;43175;51.002;18.316;2023-06-19T09:50:06;12.40;;;6.00;;
57341;SDS011;43175;51.002;18.316;2023-06-19T09:52:32;11.20;;;6.40;;
57341;SDS011;43175;51.002;18.316;2023-06-19T09:55:00;10.70;;;5.50;;
57341;SDS011;43175;51.002;18.316;2023-06-19T09:57:28;10.10;;;5.70;;
57341;SDS011;43175;51.002;18.316;2023-06-19T09:59:54;10.50;;;5.70;;
57341;SDS011;43175;51.002;18.316;2023-06-19T10:02:25;10.80;;;5.80;;
57341;SDS011;43175;51.002;18.316;2023-06-19T10:04:52;10.10;;;5.60;;
57341;SDS011;43175;51.002;18.316;2023-06-19T10:07:23;10.80;;;6.00;;
57341;SDS011;43175;51.002;18.316;2023-06-19T10:12:22;12.60;;;6.60;;
57341;SDS011;43175;51.002;18.316;2023-06-19T10:14:47;12.20;;;6.10;;
57341;SDS011;43175;51.002;18.316;2023-06-19T10:17:16;11.40;;;6.60;;
57341;SDS011;43175;51.002;18.316;2023-06-19T10:19:48;11.70;;;6.10;;
57341;SDS011;43175;51.002;18.316;2023-06-19T10:22:19;10.80;;;6.20;;
57341;SDS011;43175;51.002;18.316;2023-06-19T10:24:50;15.30;;;6.20;;
57341;SDS011;43175;51.002;18.316;2023-06-19T10:27:20;10.60;;;6.10;;
57341;SDS011;43175;51.002;18.316;2023-06-19T10:29:51;10.80;;;6.30;;
57341;SDS011;43175;51.002;18.316;2023-06-19T10:32:21;10.30;;;5.70;;
57341;SDS011;43175;51.002;18.316;2023-06-19T10:34:47;10.40;;;5.90;;
57341;SDS011;43175;51.002;18.316;2023-06-19T10:37:16;11.00;;;5.70;;
57341;SDS011;43175;51.002;18.316;2023-06-19T10:39:42;10.50;;;5.80;;
57341;SDS011;43175;51.002;18.316;2023-06-19T10:42:09;10.30;;;5.50;;
57341;SDS011;43175;51.002;18.316;2023-06-19T10:44:35;9.40;;;5.00;;
57341;SDS011;43175;51.002;18.316;2023-06-19T10:47:02;10.20;;;5.40;;
57341;SDS011;43175;51.002;18.316;2023-06-19T10:49:28;11.70;;;6.00;;
57341;SDS011;43175;51.002;18.316;2023-06-19T10:51:53;10.60;;;5.60;;
57341;SDS011;43175;51.002;18.316;2023-06-19T10:54:24;11.60;;;6.40;;
57341;SDS011;43175;51.002;18.316;2023-06-19T10:56:50;11.40;;;6.80;;
57341;SDS011;43175;51.002;18.316;2023-06-19T10:59:16;11.40;;;6.50;;
57341;SDS011;43175;51.002;18.316;2023-06-19T11:01:45;11.00;;;6.60;;
57341;SDS011;43175;51.002;18.316;2023-06-19T11:04:12;11.00;;;6.70;;
57341;SDS011;43175;51.002;18.316;2023-06-19T11:06:40;12.20;;;6.80;;
57341;SDS011;43175;51.002;18.316;2023-06-19T11:09:07;11.80;;;6.30;;
57341;SDS011;43175;51.002;18.316;2023-06-19T11:11:45;14.20;;;6.60;;
57341;SDS011;43175;51.002;18.316;2023-06-19T11:14:17;12.30;;;6.80;;
57341;SDS011;43175;51.002;18.316;2023-06-19T11:16:44;10.90;;;6.30;;
57341;SDS011;43175;51.002;18.316;2023-06-19T11:19:18;12.10;;;6.30;;
57341;SDS011;43175;51.002;18.316;2023-06-19T11:21:45;10.50;;;5.70;;
57341;SDS011;43175;51.002;18.316;2023-06-19T11:24:13;11.50;;;5.60;;
57341;SDS011;43175;51.002;18.316;2023-06-19T11:26:45;10.50;;;5.60;;
57341;SDS011;43175;51.002;18.316;2023-06-19T11:29:19;11.10;;;5.20;;
57341;SDS011;43175;51.002;18.316;2023-06-19T11:31:46;10.60;;;5.50;;
57341;SDS011;43175;51.002;18.316;2023-06-19T11:34:13;10.40;;;5.60;;
57341;SDS011;43175;51.002;18.316;2023-06-19T11:36:39;10.70;;;5.90;;
57341;SDS011;43175;51.002;18.316;2023-06-19T11:39:14;10.90;;;6.30;;
57341;SDS011;43175;51.002;18.316;2023-06-19T11:41:41;11.60;;;6.50;;
57341;SDS011;43175;51.002;18.316;2023-06-19T11:44:08;10.10;;;5.60;;
57341;SDS011;43175;51.002;18.316;2023-06-19T11:46:35;10.80;;;6.00;;
57341;SDS011;43175;51.002;18.316;2023-06-19T11:49:13;10.90;;;6.00;;
57341;SDS011;43175;51.002;18.316;2023-06-19T11:51:40;10.10;;;5.70;;
57341;SDS011;43175;51.002;18.316;2023-06-19T11:54:06;10.70;;;6.00;;
57341;SDS011;43175;51.002;18.316;2023-06-19T11:56:34;12.10;;;6.20;;
57341;SDS011;43175;51.002;18.316;2023-06-19T11:59:01;12.40;;;6.50;;
57341;SDS011;43175;51.002;18.316;2023-06-19T12:01:26;10.40;;;5.40;;
57341;SDS011;43175;51.002;18.316;2023-06-19T12:03:52;9.90;;;5.30;;
57341;SDS011;43175;51.002;18.316;2023-06-19T12:06:18;10.90;;;5.80;;
57341;SDS011;43175;51.002;18.316;2023-06-19T12:08:43;12.20;;;5.90;;
57341;SDS011;43175;51.002;18.316;2023-06-19T12:11:09;10.90;;;6.10;;
57341;SDS011;43175;51.002;18.316;2023-06-19T12:13:35;10.50;;;6.10;;
57341;SDS011;43175;51.002;18.316;2023-06-19T12:16:01;11.00;;;6.30;;
57341;SDS011;43175;51.002;18.316;2023-06-19T12:18:27;10.90;;;6.10;;
57341;SDS011;43175;51.002;18.316;2023-06-19T12:20:52;10.90;;;6.50;;
57341;SDS011;43175;51.002;18.316;2023-06-19T12:23:18;12.00;;;6.50;;
57341;SDS011;43175;51.002;18.316;2023-06-19T12:25:44;10.50;;;5.90;;
57341;SDS011;43175;51.002;18.316;2023-06-19T12:28:10;12.20;;;6.20;;
57341;SDS011;43175;51.002;18.316;2023-06-19T12:30:36;10.40;;;5.90;;
57341;SDS011;43175;51.002;18.316;2023-06-19T12:33:02;10.60;;;5.90;;
57341;SDS011;43175;51.002;18.316;2023-06-19T12:35:29;10.40;;;5.80;;
57341;SDS011;43175;51.002;18.316;2023-06-19T12:37:55;10.40;;;5.80;;
57341;SDS011;43175;51.002;18.316;2023-06-19T12:40:20;10.80;;;5.70;;
57341;SDS011;43175;51.002;18.316;2023-06-19T12:42:46;10.90;;;5.90;;
57341;SDS011;43175;51.002;18.316;2023-06-19T12:45:12;10.40;;;5.60;;
57341;SDS011;43175;51.002;18.316;2023-06-19T12:47:38;10.00;;;5.20;;
57341;SDS011;43175;51.002;18.316;2023-06-19T12:50:03;11.30;;;5.50;;
57341;SDS011;43175;51.002;18.316;2023-06-19T12:52:29;10.60;;;5.40;;
57341;SDS011;43175;51.002;18.316;2023-06-19T12:54:56;11.10;;;5.90;;
57341;SDS011;43175;51.002;18.316;2023-06-19T12:57:21;10.30;;;5.70;;
57341;SDS011;43175;51.002;18.316;2023-06-19T12:59:48;10.50;;;5.70;;
57341;SDS011;43175;51.002;18.316;2023-06-19T13:02:13;10.60;;;5.40;;
57341;SDS011;43175;51.002;18.316;2023-06-19T13:04:39;11.30;;;5.30;;
57341;SDS011;43175;51.002;18.316;2023-06-19T13:07:04;10.70;;;5.20;;
57341;SDS011;43175;51.002;18.316;2023-06-19T13:09:29;9.90;;;5.30;;
57341;SDS011;43175;51.002;18.316;2023-06-19T13:11:55;11.20;;;5.60;;
57341;SDS011;43175;51.002;18.316;2023-06-19T13:14:21;11.40;;;5.60;;
57341;SDS011;43175;51.002;18.316;2023-06-19T13:16:46;10.50;;;5.40;;
57341;SDS011;43175;51.002;18.316;2023-06-19T13:19:12;11.90;;;5.30;;
57341;SDS011;43175;51.002;18.316;2023-06-19T13:21:39;10.00;;;5.10;;
57341;SDS011;43175;51.002;18.316;2023-06-19T13:24:06;9.60;;;4.70;;
57341;SDS011;43175;51.002;18.316;2023-06-19T13:26:31;10.00;;;5.10;;
57341;SDS011;43175;51.002;18.316;2023-06-19T13:28:57;9.90;;;5.30;;
57341;SDS011;43175;51.002;18.316;2023-06-19T13:31:24;10.40;;;5.20;;
57341;SDS011;43175;51.002;18.316;2023-06-19T13:33:50;10.40;;;4.90;;
57341;SDS011;43175;51.002;18.316;2023-06-19T13:36:16;9.80;;;4.90;;
57341;SDS011;43175;51.002;18.316;2023-06-19T13:38:44;9.90;;;5.10;;
57341;SDS011;43175;51.002;18.316;2023-06-19T13:41:09;11.70;;;5.00;;
57341;SDS011;43175;51.002;18.316;2023-06-19T13:43:35;11.30;;;5.10;;
57341;SDS011;43175;51.002;18.316;2023-06-19T13:46:00;9.10;;;4.60;;
57341;SDS011;43175;51.002;18.316;2023-06-19T13:48:28;9.60;;;4.80;;
57341;SDS011;43175;51.002;18.316;2023-06-19T13:50:54;10.30;;;5.00;;
57341;SDS011;43175;51.002;18.316;2023-06-19T13:53:19;10.10;;;4.90;;
57341;SDS011;43175;51.002;18.316;2023-06-19T13:55:46;12.90;;;4.40;;
57341;SDS011;43175;51.002;18.316;2023-06-19T13:58:12;9.90;;;4.20;;
57341;SDS011;43175;51.002;18.316;2023-06-19T14:00:38;9.50;;;4.60;;
57341;SDS011;43175;51.002;18.316;2023-06-19T14:03:04;10.00;;;4.80;;
57341;SDS011;43175;51.002;18.316;2023-06-19T14:05:31;10.20;;;4.80;;
57341;SDS011;43175;51.002;18.316;2023-06-19T14:07:58;9.60;;;4.70;;
57341;SDS011;43175;51.002;18.316;2023-06-19T14:10:24;9.70;;;4.80;;
57341;SDS011;43175;51.002;18.316;2023-06-19T14:12:50;9.50;;;4.50;;
57341;SDS011;43175;51.002;18.316;2023-06-19T14:15:15;9.10;;;4.10;;